Brunswick Executive Airport (KBXM)
Brunswick, ME
Field Elevation: 72
Lat: 43°53.54N  Long: 69°56.33W
CTAF/Unicom Freq: 122.7250
   
    
Weather Advisories
2019-01-20   21:45 Z
Altimeter 29.31" Hg
Wind 030° @ 18 KT
Gusts 23 KT
Visibility 1 SM
Ceiling FEW008 SCT011 OVC016
Temperature -14° C (7° F)
Dewpoint -17° C (1° F)
Relative Humidity 79%
Density Altitude --
Condensation Altitude 1,500 feet
Wind Chill: -25° C (-13° F)
Wind and Runways
Indicated Runway = 01
Headwind = 17 kt
Crosswind = 6 kt
History
 
 
 
More Info
All DigiWx sites map
 
NOAA Forecast
 
Airport IQ 5010
(OCNJ) Ocean City, NJ
(39N) Princeton, NJ
 
about DigiWx
 
FAA Disclaimer: The data displayed is for advisory purposes only and is not to be used for flight planning or operations. For official data, please call (not available) to hear the current automated AWOS voice message.
  METAR KBXM 202145Z AUTO 03018G23KT 1 SM FEW008 SCT011 OVC016 M14/M17 A2931